Terminal Aerodrome Forecast
Issued by NWS

Home | Current Version | Previous Version | Text Only | Print | Product List | Glossary On
Versions: 1 2 3 4 5 6 7 8 9 10 11 12 13 14 15 16 17 18 19 20 21 22 23 24 25 26 27 28 29 30
000
FTAK31 PAFA 240524
TAFAMC
TAF
PAMC 240524Z 2406/2506 25008KT P6SM -RA FEW035 BKN045 OVC060
     FM241200 21005KT 4SM -RA BR OVC015
     FM242100 25005KT 6SM -RA BR OVC020
     FM250100 29004KT P6SM OVC050=

USA.gov is the U.S. government's official web portal to all federal, state and local government web resources and services.